Yakutat, AK

3:00 PM AKDT on July 29, 2014 (GMT -0800)
Yakutat (PAYA) Elev 33 ft | 59.50 °N, 139.66 °W | Change Station

Current weather conditions updated 1 hour ago

Mostly Cloudy
Mostly Cloudy
63 °F
Feels Like 63 °F
N
8
Wind Variable Wind from South

Today is forecast to be Cooler than yesterday. Showers.

Today
High -- | Low -- °F
--% Chance of Precip.
Yesterday
High -- | Low -- °F
Precip. -- in
4:53 AM 9:53 PM
Waxing Crescent, 8% visible
Pressure 29.95 in
Visibility 10.0 miles
Clouds Few 2300 ft
Mostly Cloudy 2800 ft
Mostly Cloudy 8000 ft
Dew Point 52 °F
Humidity 67%
Rainfall 0.27 in
Snow Depth Not available.
UV 4 out of 12
Pollen Not available.
Air Quality Not available.
Flu Activity Not available.
METAR PAYA 292153Z 19007KT 10SM FEW023 BKN028 BKN080 17/11 A2995 RMK SLP141 T01720111 VIA AUTODIAL

More Conditions Fewer Conditions

Pressure 29.95 in
Visibility 10.0 miles
Clouds Few 2300 ft
Mostly Cloudy 2800 ft
Mostly Cloudy 8000 ft
Dew Point 52 °F
Humidity 67%
Rainfall 0.27 in
Snow Depth Not available.
UV 4 out of 12
Pollen Not available.
Air Quality Not available.
Flu Activity Not available.
METAR PAYA 292153Z 19007KT 10SM FEW023 BKN028 BKN080 17/11 A2995 RMK SLP141 T01720111 VIA AUTODIAL

More Conditions Fewer Conditions

10-Day Weather Forecast

Almanac

Astronomy

Jul. 29, 2014 Rise Set
Actual Time 4:53 AM AKDT 9:53 PM AKDT
Civil Twilight 3:51 AM AKDT 10:55 PM AKDT
Nautical Twilight 1:57 AM AKDT 12:52 AM AKDT
Astronomical Twilight Sun does not rise Sun does not rise
Moon 8:36 AM AKDT 10:04 PM AKDT
Length of Visible Light 19h 03m
Length of Day
17h 00m
Tomorrow will be 4m 41s shorter.
Waxing Crescent, 8% of the Moon is Illuminated
Today
Waxing Crescent
Aug 3
First Quarter
Aug 10
Full
Aug 17
Last Quarter
Aug 25
New

Today's Extremes

State Highs State Lows

Community

WunderPhotos

Upload Photos

1,738,909 photos uploaded!

Nearby

Snow Depth

Station Depth Elevation
Upper Tsaina River 0 in 1750 ft
Long Lake 1 in 820 ft
Grandview 2 in 1100 ft
Turnagain Pass 0 in 1880 ft
Grouse Creek Divide 0 in 700 ft

Earthquake Activity

City Distance Mag. Time & Date
No recent earthquake activity has been reported nearby.
Minimum magnitude displayed is 2.5.

Coastal Water Temperatures

Place Temperature
No Stations Reporting

Nearby Weather Stations

There are no personal weather stations in this area.